Have a Safe July 4th! 

Flight Track Log - Related Links

Times and Time Zones

All times are in EDT time to prevent confusion due to time zone crossing. See the N197PQ flight status page for this flight to view local times or setup timezone preferences in your user account.

Time Position Orientation Groundspeed Altitude Reporting Facility
EDT Latitude Longitude Course Direction KTS MPH feet Rate Location/Type
Sat 10:20:07 PM 33.6667 -84.3258 35° Northeast 200 230 4,100  Level Atlanta Center
Sat 10:21:07 PM 33.7189 -84.2811 350° North 223 257 7,400 3,200 Climbing Atlanta Center
Sat 10:22:07 PM 33.7939 -84.2964 284° West 232 267 10,500 2,100 Climbing Atlanta Center
Sat 10:23:07 PM 33.8167 -84.4064 267° West 220 253 11,600 1,800 Climbing Atlanta Center
Sat 10:24:07 PM 33.8100 -84.5464 259° West 355 409 14,100 2,200 Climbing Atlanta Center
Sat 10:25:07 PM 33.7883 -84.6761 254° West 375 432 16,000 1,850 Climbing Atlanta Center
Sat 10:26:07 PM 33.7628 -84.7833 253° West 396 456 17,800 1,700 Climbing Atlanta Center
Sat 10:27:07 PM 33.7222 -84.9381 267° West 434 499 19,400 1,850 Climbing Atlanta Center
Sat 10:28:07 PM 33.7167 -85.0828 283° West 442 509 21,500 1,950 Climbing Atlanta Center
Sat 10:29:07 PM 33.7447 -85.2256 282° West 433 498 23,300 1,600 Climbing Atlanta Center
Sat 10:30:07 PM 33.7703 -85.3708 282° West 448 516 24,700 1,350 Climbing Atlanta Center
Sat 10:31:07 PM 33.7958 -85.5211 282° West 453 521 26,000 1,350 Climbing Atlanta Center
Sat 10:32:07 PM 33.8231 -85.6742 281° West 463 533 27,400 1,500 Climbing Atlanta Center
Sat 10:33:07 PM 33.8461 -85.8147 281° West 455 524 29,000 1,550 Climbing Atlanta Center
Sat 10:34:07 PM 33.8689 -85.9628 281° West 450 518 30,500 1,500 Climbing Atlanta Center
Sat 10:35:07 PM 33.8936 -86.1133 281° West 455 524 32,000 1,350 Climbing Atlanta Center
Sat 10:36:07 PM 33.9183 -86.2617 281° West 455 524 33,200 1,000 Climbing Atlanta Center
Sat 10:37:07 PM 33.9425 -86.4125 280° West 455 524 34,000 400 Climbing Atlanta Center
Sat 10:38:07 PM 33.9664 -86.5786 281° West 455 524 34,000  Level Atlanta Center
Sat 10:39:58 PM 34.0083 -86.8467 282° West 460 529 34,000  Level Memphis Center
Sat 10:40:58 PM 34.0356 -87.0058 279° West 471 542 34,000  Level Memphis Center
Sat 10:41:58 PM 34.0564 -87.1581 283° West 471 542 34,000  Level Memphis Center
Sat 10:42:58 PM 34.0875 -87.3250 281° West 458 527 34,000  Level Memphis Center
Sat 10:43:58 PM 34.1097 -87.4622 279° West 464 534 34,000  Level Memphis Center
Sat 10:44:58 PM 34.1300 -87.6194 280° West 478 550 34,000  Level Memphis Center
Sat 10:45:58 PM 34.1522 -87.7769 281° West 478 550 34,000  Level Memphis Center
Sat 10:46:58 PM 34.1761 -87.9269 279° West 473 544 34,000  Level Memphis Center
Sat 10:47:58 PM 34.1956 -88.0794 280° West 465 535 34,000  Level Memphis Center
Sat 10:48:58 PM 34.2192 -88.2397 280° West 472 543 34,000  Level Memphis Center
Sat 10:49:58 PM 34.2406 -88.3950 280° West 472 543 34,000  Level Memphis Center
Sat 10:50:58 PM 34.2639 -88.5578 280° West 467 537 34,000  Level Memphis Center
Sat 10:51:58 PM 34.2847 -88.7081 281° West 462 532 34,000  Level Memphis Center
Sat 10:52:58 PM 34.3075 -88.8561 279° West 462 532 34,000  Level Memphis Center
Sat 10:53:58 PM 34.3261 -89.0067 280° West 457 526 34,000  Level Memphis Center
Sat 10:54:58 PM 34.3483 -89.1597 279° West 462 532 34,000  Level Memphis Center
Sat 10:55:58 PM 34.3686 -89.3128 279° West 467 537 34,000  Level Memphis Center
Sat 10:56:58 PM 34.3886 -89.4661 279° West 467 537 34,000  Level Memphis Center
Sat 10:57:58 PM 34.4061 -89.6069 280° West 467 537 34,000 -700 Level Memphis Center
Sat 10:58:58 PM 34.4281 -89.7653 279° West 472 543 32,600 -1,600 Descending Memphis Center
Sat 10:59:58 PM 34.4494 -89.9214 279° West 472 543 30,800 -1,850 Descending Memphis Center
Sat 11:00:58 PM 34.4708 -90.0900 279° West 472 543 28,900 -1,850 Descending Memphis Center
Sat 11:01:58 PM 34.4897 -90.2411 280° West 464 534 27,100 -1,850 Descending Memphis Center
Sat 11:02:58 PM 34.5108 -90.3900 279° West 458 527 25,200 -2,000 Descending Memphis Center
Sat 11:03:58 PM 34.5294 -90.5361 279° West 453 521 23,100 -2,050 Descending Memphis Center
Sat 11:04:58 PM 34.5481 -90.6825 279° West 442 509 21,100 -2,000 Descending Memphis Center
Sat 11:05:58 PM 34.5664 -90.8211 278° West 434 499 19,100 -1,900 Descending Memphis Center
Sat 11:06:58 PM 34.5822 -90.9650 279° West 427 491 17,300 -1,850 Descending Memphis Center
Sat 11:07:58 PM 34.6003 -91.1014 278° West 427 491 15,400 -1,750 Descending Memphis Center
Sat 11:08:58 PM 34.6142 -91.2228 277° West 427 491 13,800 -1,855 Descending Memphis Center
Sat 11:09:48 PM 34.6258 -91.3439 279° West 392 451 12,000 -1,950 Descending Memphis Center
Sat 11:10:18 PM 34.6336 -91.4047 281° West 383 441 11,200 -1,371 Descending Memphis Center
Sat 11:10:58 PM 34.6456 -91.4781 284° West 388 447 10,400 -1,020 Descending Memphis Center
Sat 11:11:58 PM 34.6675 -91.5817 285° West 345 397 9,500 -1,350 Descending Memphis Center
Sat 11:12:58 PM 34.6875 -91.6756 283° West 298 343 7,700 -1,900 Descending Memphis Center
Sat 11:13:58 PM 34.7072 -91.7794 283° West 285 328 5,700 -1,950 Descending Memphis Center
Sat 11:14:58 PM 34.7250 -91.8706 284° West 280 322 3,800 -1,400 Descending Memphis Center
Sat 11:15:58 PM 34.7425 -91.9569 285° West 275 316 2,900 -900 Descending Memphis Center
Sat 11:16:58 PM 34.7583 -92.0306 283° West 252 290 2,000 -450 Descending Memphis Center
Sat 11:17:58 PM 34.7719 -92.1017 278° West 235 270 2,000 -200 Level Memphis Center
Sat 11:18:58 PM 34.7794 -92.1675 226° Southwest 214 246 1,600 -550 Descending Memphis Center
Sat 11:19:58 PM 34.7539 -92.1997 226° Southwest 166 191 900 -700 Descending Memphis Center

Login

Don't have an account? Register now (free) for customized features, flight alerts, and more!